sensor_id;sensor_type;location;lat;lon;timestamp;P1;durP1;ratioP1;P2;durP2;ratioP2
75261;SDS011;63859;51.064;4.580;2022-12-11T00:02:00;34.47;;;16.40;;
75261;SDS011;63859;51.064;4.580;2022-12-11T00:04:26;36.80;;;17.00;;
75261;SDS011;63859;51.064;4.580;2022-12-11T00:06:52;36.37;;;15.60;;
75261;SDS011;63859;51.064;4.580;2022-12-11T00:09:18;37.17;;;15.67;;
75261;SDS011;63859;51.064;4.580;2022-12-11T00:11:45;34.30;;;16.37;;
75261;SDS011;63859;51.064;4.580;2022-12-11T00:14:11;33.20;;;16.77;;
75261;SDS011;63859;51.064;4.580;2022-12-11T00:16:38;31.87;;;15.67;;
75261;SDS011;63859;51.064;4.580;2022-12-11T00:19:04;33.73;;;15.73;;
75261;SDS011;63859;51.064;4.580;2022-12-11T00:21:29;36.83;;;15.27;;
75261;SDS011;63859;51.064;4.580;2022-12-11T00:23:55;33.77;;;14.83;;
75261;SDS011;63859;51.064;4.580;2022-12-11T00:26:21;33.73;;;16.77;;
75261;SDS011;63859;51.064;4.580;2022-12-11T00:28:47;32.20;;;15.70;;
75261;SDS011;63859;51.064;4.580;2022-12-11T00:31:16;35.57;;;16.83;;
75261;SDS011;63859;51.064;4.580;2022-12-11T00:33:43;38.27;;;16.27;;
75261;SDS011;63859;51.064;4.580;2022-12-11T00:36:10;33.30;;;15.83;;
75261;SDS011;63859;51.064;4.580;2022-12-11T00:38:39;37.67;;;16.33;;
75261;SDS011;63859;51.064;4.580;2022-12-11T00:41:06;32.47;;;14.63;;
75261;SDS011;63859;51.064;4.580;2022-12-11T00:43:32;32.17;;;15.70;;
75261;SDS011;63859;51.064;4.580;2022-12-11T00:45:58;33.37;;;16.00;;
75261;SDS011;63859;51.064;4.580;2022-12-11T00:48:23;40.53;;;16.20;;
75261;SDS011;63859;51.064;4.580;2022-12-11T00:50:49;35.17;;;15.47;;
75261;SDS011;63859;51.064;4.580;2022-12-11T00:53:14;30.73;;;15.30;;
75261;SDS011;63859;51.064;4.580;2022-12-11T00:55:40;35.47;;;16.00;;
75261;SDS011;63859;51.064;4.580;2022-12-11T00:58:07;33.83;;;15.67;;
75261;SDS011;63859;51.064;4.580;2022-12-11T01:00:33;35.10;;;14.83;;
75261;SDS011;63859;51.064;4.580;2022-12-11T01:02:59;33.83;;;14.83;;
75261;SDS011;63859;51.064;4.580;2022-12-11T01:05:25;42.23;;;16.20;;
75261;SDS011;63859;51.064;4.580;2022-12-11T01:07:51;34.97;;;15.77;;
75261;SDS011;63859;51.064;4.580;2022-12-11T01:10:16;30.77;;;14.73;;
75261;SDS011;63859;51.064;4.580;2022-12-11T01:12:55;38.23;;;16.23;;
75261;SDS011;63859;51.064;4.580;2022-12-11T01:15:24;37.80;;;15.30;;
75261;SDS011;63859;51.064;4.580;2022-12-11T01:17:52;36.60;;;17.53;;
75261;SDS011;63859;51.064;4.580;2022-12-11T01:20:18;36.57;;;16.20;;
75261;SDS011;63859;51.064;4.580;2022-12-11T01:22:45;35.47;;;16.60;;
75261;SDS011;63859;51.064;4.580;2022-12-11T01:25:11;36.63;;;16.57;;
75261;SDS011;63859;51.064;4.580;2022-12-11T01:27:36;34.30;;;15.83;;
75261;SDS011;63859;51.064;4.580;2022-12-11T01:30:03;37.60;;;16.63;;
75261;SDS011;63859;51.064;4.580;2022-12-11T01:32:31;36.23;;;15.60;;
75261;SDS011;63859;51.064;4.580;2022-12-11T01:34:57;32.13;;;14.73;;
75261;SDS011;63859;51.064;4.580;2022-12-11T01:37:22;33.53;;;15.27;;
75261;SDS011;63859;51.064;4.580;2022-12-11T01:39:48;31.40;;;14.33;;
75261;SDS011;63859;51.064;4.580;2022-12-11T01:42:17;33.53;;;15.17;;
75261;SDS011;63859;51.064;4.580;2022-12-11T01:47:10;30.63;;;14.30;;
75261;SDS011;63859;51.064;4.580;2022-12-11T01:49:36;34.27;;;14.57;;
75261;SDS011;63859;51.064;4.580;2022-12-11T01:52:09;30.87;;;14.87;;
75261;SDS011;63859;51.064;4.580;2022-12-11T01:54:40;30.20;;;14.50;;
75261;SDS011;63859;51.064;4.580;2022-12-11T01:57:08;34.00;;;15.17;;
75261;SDS011;63859;51.064;4.580;2022-12-11T01:59:35;29.43;;;14.77;;
75261;SDS011;63859;51.064;4.580;2022-12-11T02:02:05;31.23;;;14.03;;
75261;SDS011;63859;51.064;4.580;2022-12-11T02:04:33;32.80;;;14.47;;
75261;SDS011;63859;51.064;4.580;2022-12-11T02:07:01;31.10;;;15.27;;
75261;SDS011;63859;51.064;4.580;2022-12-11T02:09:28;32.87;;;15.13;;
75261;SDS011;63859;51.064;4.580;2022-12-11T02:28:15;32.80;;;14.87;;
75261;SDS011;63859;51.064;4.580;2022-12-11T02:30:46;29.23;;;14.37;;
75261;SDS011;63859;51.064;4.580;2022-12-11T02:33:51;31.07;;;14.40;;
75261;SDS011;63859;51.064;4.580;2022-12-11T02:36:25;32.10;;;13.97;;
75261;SDS011;63859;51.064;4.580;2022-12-11T02:38:54;33.23;;;15.07;;
75261;SDS011;63859;51.064;4.580;2022-12-11T02:41:23;36.90;;;16.77;;
75261;SDS011;63859;51.064;4.580;2022-12-11T02:43:50;29.33;;;14.33;;
75261;SDS011;63859;51.064;4.580;2022-12-11T02:46:19;31.40;;;14.63;;
75261;SDS011;63859;51.064;4.580;2022-12-11T02:48:46;26.43;;;14.10;;
75261;SDS011;63859;51.064;4.580;2022-12-11T02:51:15;31.43;;;15.37;;
75261;SDS011;63859;51.064;4.580;2022-12-11T02:53:45;29.37;;;13.60;;
75261;SDS011;63859;51.064;4.580;2022-12-11T02:56:23;33.40;;;15.00;;
75261;SDS011;63859;51.064;4.580;2022-12-11T02:59:10;34.07;;;16.00;;
75261;SDS011;63859;51.064;4.580;2022-12-11T03:01:43;30.23;;;14.77;;
75261;SDS011;63859;51.064;4.580;2022-12-11T03:04:09;35.70;;;15.63;;
75261;SDS011;63859;51.064;4.580;2022-12-11T03:06:36;31.90;;;14.30;;
75261;SDS011;63859;51.064;4.580;2022-12-11T03:09:06;31.63;;;15.00;;
75261;SDS011;63859;51.064;4.580;2022-12-11T03:11:32;35.17;;;15.80;;
75261;SDS011;63859;51.064;4.580;2022-12-11T03:13:58;31.40;;;15.47;;
75261;SDS011;63859;51.064;4.580;2022-12-11T03:16:33;35.10;;;15.40;;
75261;SDS011;63859;51.064;4.580;2022-12-11T03:21:52;36.33;;;14.67;;
75261;SDS011;63859;51.064;4.580;2022-12-11T03:24:29;32.03;;;15.10;;
75261;SDS011;63859;51.064;4.580;2022-12-11T03:29:57;33.87;;;14.77;;
75261;SDS011;63859;51.064;4.580;2022-12-11T03:32:29;35.87;;;15.77;;
75261;SDS011;63859;51.064;4.580;2022-12-11T03:35:08;32.90;;;15.63;;
75261;SDS011;63859;51.064;4.580;2022-12-11T03:37:41;33.23;;;14.77;;
75261;SDS011;63859;51.064;4.580;2022-12-11T03:40:12;36.43;;;15.03;;
75261;SDS011;63859;51.064;4.580;2022-12-11T03:42:40;35.30;;;15.07;;
75261;SDS011;63859;51.064;4.580;2022-12-11T03:45:09;34.43;;;15.33;;
75261;SDS011;63859;51.064;4.580;2022-12-11T03:47:36;35.17;;;15.07;;
75261;SDS011;63859;51.064;4.580;2022-12-11T03:50:03;34.90;;;15.53;;
75261;SDS011;63859;51.064;4.580;2022-12-11T03:52:31;31.27;;;14.83;;
75261;SDS011;63859;51.064;4.580;2022-12-11T03:54:58;31.83;;;15.33;;
75261;SDS011;63859;51.064;4.580;2022-12-11T03:57:28;38.63;;;15.90;;
75261;SDS011;63859;51.064;4.580;2022-12-11T03:59:55;35.77;;;15.60;;
75261;SDS011;63859;51.064;4.580;2022-12-11T04:02:22;32.87;;;14.73;;
75261;SDS011;63859;51.064;4.580;2022-12-11T04:04:47;36.50;;;15.80;;
75261;SDS011;63859;51.064;4.580;2022-12-11T04:07:13;35.63;;;16.07;;
75261;SDS011;63859;51.064;4.580;2022-12-11T04:09:38;36.90;;;16.77;;
75261;SDS011;63859;51.064;4.580;2022-12-11T04:12:04;31.73;;;15.67;;
75261;SDS011;63859;51.064;4.580;2022-12-11T04:14:30;36.20;;;16.03;;
75261;SDS011;63859;51.064;4.580;2022-12-11T04:17:14;37.77;;;17.10;;
75261;SDS011;63859;51.064;4.580;2022-12-11T04:19:59;38.87;;;16.47;;
75261;SDS011;63859;51.064;4.580;2022-12-11T04:22:43;40.07;;;17.10;;
75261;SDS011;63859;51.064;4.580;2022-12-11T04:25:27;37.87;;;17.27;;
75261;SDS011;63859;51.064;4.580;2022-12-11T04:27:53;36.63;;;17.73;;
75261;SDS011;63859;51.064;4.580;2022-12-11T04:30:20;38.53;;;17.70;;
75261;SDS011;63859;51.064;4.580;2022-12-11T04:32:48;37.20;;;16.77;;
75261;SDS011;63859;51.064;4.580;2022-12-11T04:35:15;39.10;;;16.97;;
75261;SDS011;63859;51.064;4.580;2022-12-11T04:37:41;32.53;;;15.70;;
75261;SDS011;63859;51.064;4.580;2022-12-11T04:40:08;36.73;;;16.93;;
75261;SDS011;63859;51.064;4.580;2022-12-11T04:42:35;35.63;;;16.40;;
75261;SDS011;63859;51.064;4.580;2022-12-11T04:45:01;37.23;;;16.50;;
75261;SDS011;63859;51.064;4.580;2022-12-11T04:47:26;36.63;;;17.43;;
75261;SDS011;63859;51.064;4.580;2022-12-11T04:49:52;33.73;;;17.10;;
75261;SDS011;63859;51.064;4.580;2022-12-11T04:52:17;36.30;;;17.20;;
75261;SDS011;63859;51.064;4.580;2022-12-11T04:54:43;40.93;;;16.77;;
75261;SDS011;63859;51.064;4.580;2022-12-11T04:57:09;38.03;;;16.87;;
75261;SDS011;63859;51.064;4.580;2022-12-11T04:59:34;41.37;;;17.87;;
75261;SDS011;63859;51.064;4.580;2022-12-11T05:02:01;39.90;;;17.57;;
75261;SDS011;63859;51.064;4.580;2022-12-11T05:04:33;41.30;;;18.23;;
75261;SDS011;63859;51.064;4.580;2022-12-11T05:07:00;40.40;;;17.30;;
75261;SDS011;63859;51.064;4.580;2022-12-11T05:09:26;42.23;;;17.93;;
75261;SDS011;63859;51.064;4.580;2022-12-11T05:11:52;42.43;;;16.87;;
75261;SDS011;63859;51.064;4.580;2022-12-11T05:14:17;44.70;;;17.23;;
75261;SDS011;63859;51.064;4.580;2022-12-11T05:16:43;40.20;;;18.17;;
75261;SDS011;63859;51.064;4.580;2022-12-11T05:19:09;47.03;;;19.33;;
75261;SDS011;63859;51.064;4.580;2022-12-11T05:21:35;47.53;;;19.73;;
75261;SDS011;63859;51.064;4.580;2022-12-11T05:24:00;49.47;;;18.80;;
75261;SDS011;63859;51.064;4.580;2022-12-11T05:26:26;47.80;;;19.63;;
75261;SDS011;63859;51.064;4.580;2022-12-11T05:28:53;50.77;;;19.67;;
75261;SDS011;63859;51.064;4.580;2022-12-11T05:31:20;48.77;;;20.47;;
75261;SDS011;63859;51.064;4.580;2022-12-11T05:33:47;46.57;;;18.97;;
75261;SDS011;63859;51.064;4.580;2022-12-11T05:36:18;52.13;;;19.57;;
75261;SDS011;63859;51.064;4.580;2022-12-11T05:38:52;48.80;;;18.97;;
75261;SDS011;63859;51.064;4.580;2022-12-11T05:41:19;48.43;;;18.63;;
75261;SDS011;63859;51.064;4.580;2022-12-11T05:43:46;52.73;;;19.10;;
75261;SDS011;63859;51.064;4.580;2022-12-11T05:46:20;45.37;;;19.23;;
75261;SDS011;63859;51.064;4.580;2022-12-11T05:48:48;49.10;;;20.20;;
75261;SDS011;63859;51.064;4.580;2022-12-11T05:51:15;50.90;;;19.10;;
75261;SDS011;63859;51.064;4.580;2022-12-11T05:53:42;55.30;;;19.97;;
75261;SDS011;63859;51.064;4.580;2022-12-11T05:56:10;41.57;;;17.00;;
75261;SDS011;63859;51.064;4.580;2022-12-11T05:58:37;45.77;;;18.53;;
75261;SDS011;63859;51.064;4.580;2022-12-11T06:01:07;47.20;;;19.17;;
75261;SDS011;63859;51.064;4.580;2022-12-11T06:03:34;50.70;;;20.03;;
75261;SDS011;63859;51.064;4.580;2022-12-11T06:06:00;49.27;;;19.30;;
75261;SDS011;63859;51.064;4.580;2022-12-11T06:08:27;44.60;;;19.07;;
75261;SDS011;63859;51.064;4.580;2022-12-11T06:10:53;48.73;;;19.27;;
75261;SDS011;63859;51.064;4.580;2022-12-11T06:13:18;56.63;;;20.73;;
75261;SDS011;63859;51.064;4.580;2022-12-11T06:15:44;52.63;;;20.33;;
75261;SDS011;63859;51.064;4.580;2022-12-11T06:18:09;50.27;;;19.03;;
75261;SDS011;63859;51.064;4.580;2022-12-11T06:20:35;52.37;;;21.33;;
75261;SDS011;63859;51.064;4.580;2022-12-11T06:23:01;53.67;;;20.67;;
75261;SDS011;63859;51.064;4.580;2022-12-11T06:25:27;52.93;;;19.83;;
75261;SDS011;63859;51.064;4.580;2022-12-11T06:27:53;51.97;;;19.77;;
75261;SDS011;63859;51.064;4.580;2022-12-11T06:30:19;51.57;;;19.73;;
75261;SDS011;63859;51.064;4.580;2022-12-11T06:32:45;51.60;;;19.70;;
75261;SDS011;63859;51.064;4.580;2022-12-11T06:35:11;52.47;;;20.83;;
75261;SDS011;63859;51.064;4.580;2022-12-11T06:37:37;59.23;;;21.00;;
75261;SDS011;63859;51.064;4.580;2022-12-11T06:40:04;55.60;;;21.07;;
75261;SDS011;63859;51.064;4.580;2022-12-11T06:42:31;55.00;;;20.50;;
75261;SDS011;63859;51.064;4.580;2022-12-11T06:44:56;54.77;;;20.07;;
75261;SDS011;63859;51.064;4.580;2022-12-11T06:47:26;58.37;;;22.33;;
75261;SDS011;63859;51.064;4.580;2022-12-11T06:49:53;54.10;;;20.40;;
75261;SDS011;63859;51.064;4.580;2022-12-11T06:52:23;52.50;;;20.07;;
75261;SDS011;63859;51.064;4.580;2022-12-11T06:54:51;52.77;;;21.23;;
75261;SDS011;63859;51.064;4.580;2022-12-11T06:57:17;51.47;;;19.90;;
75261;SDS011;63859;51.064;4.580;2022-12-11T06:59:43;52.50;;;19.57;;
75261;SDS011;63859;51.064;4.580;2022-12-11T07:02:12;50.63;;;19.83;;
75261;SDS011;63859;51.064;4.580;2022-12-11T07:04:39;53.17;;;20.30;;
75261;SDS011;63859;51.064;4.580;2022-12-11T07:07:06;53.30;;;20.13;;
75261;SDS011;63859;51.064;4.580;2022-12-11T07:09:32;54.03;;;20.40;;
75261;SDS011;63859;51.064;4.580;2022-12-11T07:11:58;54.90;;;20.37;;
75261;SDS011;63859;51.064;4.580;2022-12-11T07:14:24;56.90;;;21.20;;
75261;SDS011;63859;51.064;4.580;2022-12-11T07:16:50;54.77;;;21.53;;
75261;SDS011;63859;51.064;4.580;2022-12-11T07:19:15;60.20;;;21.80;;
75261;SDS011;63859;51.064;4.580;2022-12-11T07:21:41;59.63;;;21.73;;
75261;SDS011;63859;51.064;4.580;2022-12-11T07:24:07;60.33;;;22.47;;
75261;SDS011;63859;51.064;4.580;2022-12-11T07:26:33;59.93;;;23.13;;
75261;SDS011;63859;51.064;4.580;2022-12-11T07:28:59;60.10;;;22.00;;
75261;SDS011;63859;51.064;4.580;2022-12-11T07:31:25;54.67;;;20.43;;
75261;SDS011;63859;51.064;4.580;2022-12-11T07:33:56;53.60;;;21.70;;
75261;SDS011;63859;51.064;4.580;2022-12-11T07:36:25;59.60;;;22.07;;
75261;SDS011;63859;51.064;4.580;2022-12-11T07:38:51;57.83;;;21.97;;
75261;SDS011;63859;51.064;4.580;2022-12-11T07:41:18;58.97;;;21.40;;
75261;SDS011;63859;51.064;4.580;2022-12-11T07:43:43;54.13;;;20.03;;
75261;SDS011;63859;51.064;4.580;2022-12-11T07:46:20;58.33;;;21.53;;
75261;SDS011;63859;51.064;4.580;2022-12-11T07:48:49;60.43;;;21.90;;
75261;SDS011;63859;51.064;4.580;2022-12-11T07:53:49;58.60;;;21.60;;
75261;SDS011;63859;51.064;4.580;2022-12-11T07:56:15;62.07;;;21.97;;
75261;SDS011;63859;51.064;4.580;2022-12-11T07:58:41;58.70;;;22.83;;
75261;SDS011;63859;51.064;4.580;2022-12-11T08:01:11;62.07;;;22.07;;
75261;SDS011;63859;51.064;4.580;2022-12-11T08:03:41;63.73;;;22.50;;
75261;SDS011;63859;51.064;4.580;2022-12-11T08:06:08;57.23;;;22.50;;
75261;SDS011;63859;51.064;4.580;2022-12-11T08:08:34;59.37;;;23.40;;
75261;SDS011;63859;51.064;4.580;2022-12-11T08:11:00;67.27;;;22.63;;
75261;SDS011;63859;51.064;4.580;2022-12-11T08:13:30;55.97;;;22.30;;
75261;SDS011;63859;51.064;4.580;2022-12-11T08:15:56;56.50;;;22.37;;
75261;SDS011;63859;51.064;4.580;2022-12-11T08:18:22;55.87;;;23.07;;
75261;SDS011;63859;51.064;4.580;2022-12-11T08:20:47;56.30;;;24.03;;
75261;SDS011;63859;51.064;4.580;2022-12-11T08:23:13;68.93;;;25.30;;
75261;SDS011;63859;51.064;4.580;2022-12-11T08:25:38;58.77;;;22.87;;
75261;SDS011;63859;51.064;4.580;2022-12-11T08:28:04;53.83;;;22.27;;
75261;SDS011;63859;51.064;4.580;2022-12-11T08:30:30;53.27;;;22.33;;
75261;SDS011;63859;51.064;4.580;2022-12-11T08:32:56;53.07;;;22.93;;
75261;SDS011;63859;51.064;4.580;2022-12-11T08:35:23;50.33;;;21.63;;
75261;SDS011;63859;51.064;4.580;2022-12-11T08:37:49;53.20;;;22.17;;
75261;SDS011;63859;51.064;4.580;2022-12-11T08:40:15;49.17;;;22.17;;
75261;SDS011;63859;51.064;4.580;2022-12-11T08:42:40;53.63;;;21.87;;
75261;SDS011;63859;51.064;4.580;2022-12-11T08:45:06;51.97;;;22.50;;
75261;SDS011;63859;51.064;4.580;2022-12-11T08:47:32;50.33;;;21.93;;
75261;SDS011;63859;51.064;4.580;2022-12-11T08:49:58;53.63;;;22.53;;
75261;SDS011;63859;51.064;4.580;2022-12-11T08:52:23;53.53;;;22.03;;
75261;SDS011;63859;51.064;4.580;2022-12-11T08:54:49;50.70;;;21.13;;
75261;SDS011;63859;51.064;4.580;2022-12-11T08:57:14;47.70;;;22.00;;
75261;SDS011;63859;51.064;4.580;2022-12-11T08:59:40;51.77;;;21.47;;
75261;SDS011;63859;51.064;4.580;2022-12-11T09:02:06;54.80;;;21.60;;
75261;SDS011;63859;51.064;4.580;2022-12-11T09:04:34;51.67;;;20.37;;
75261;SDS011;63859;51.064;4.580;2022-12-11T09:07:00;55.33;;;22.53;;
75261;SDS011;63859;51.064;4.580;2022-12-11T09:09:25;48.13;;;21.23;;
75261;SDS011;63859;51.064;4.580;2022-12-11T09:11:51;51.27;;;20.33;;
75261;SDS011;63859;51.064;4.580;2022-12-11T09:14:17;48.30;;;20.23;;
75261;SDS011;63859;51.064;4.580;2022-12-11T09:16:42;44.97;;;19.67;;
75261;SDS011;63859;51.064;4.580;2022-12-11T09:19:10;44.33;;;19.77;;
75261;SDS011;63859;51.064;4.580;2022-12-11T09:21:38;56.93;;;21.90;;
75261;SDS011;63859;51.064;4.580;2022-12-11T09:24:04;50.67;;;20.63;;
75261;SDS011;63859;51.064;4.580;2022-12-11T09:26:30;53.03;;;21.50;;
75261;SDS011;63859;51.064;4.580;2022-12-11T09:28:56;51.03;;;21.37;;
75261;SDS011;63859;51.064;4.580;2022-12-11T09:33:50;48.83;;;20.60;;
75261;SDS011;63859;51.064;4.580;2022-12-11T09:36:18;46.83;;;18.93;;
75261;SDS011;63859;51.064;4.580;2022-12-11T09:38:43;45.57;;;18.90;;
75261;SDS011;63859;51.064;4.580;2022-12-11T09:46:16;46.60;;;19.37;;
75261;SDS011;63859;51.064;4.580;2022-12-11T09:48:43;51.50;;;20.13;;
75261;SDS011;63859;51.064;4.580;2022-12-11T09:53:48;42.97;;;18.33;;
75261;SDS011;63859;51.064;4.580;2022-12-11T10:07:13;43.23;;;18.23;;
75261;SDS011;63859;51.064;4.580;2022-12-11T10:16:11;40.43;;;18.43;;
75261;SDS011;63859;51.064;4.580;2022-12-11T10:18:24;43.13;;;18.37;;
75261;SDS011;63859;51.064;4.580;2022-12-11T10:20:52;43.53;;;19.50;;
75261;SDS011;63859;51.064;4.580;2022-12-11T10:23:20;44.17;;;18.23;;
75261;SDS011;63859;51.064;4.580;2022-12-11T10:25:55;42.57;;;17.43;;
75261;SDS011;63859;51.064;4.580;2022-12-11T10:28:26;45.50;;;19.30;;
75261;SDS011;63859;51.064;4.580;2022-12-11T10:36:17;47.00;;;18.77;;
75261;SDS011;63859;51.064;4.580;2022-12-11T10:38:44;46.93;;;19.43;;
75261;SDS011;63859;51.064;4.580;2022-12-11T10:41:18;43.63;;;18.67;;
75261;SDS011;63859;51.064;4.580;2022-12-11T10:43:48;44.17;;;18.17;;
75261;SDS011;63859;51.064;4.580;2022-12-11T10:46:19;44.13;;;17.83;;
75261;SDS011;63859;51.064;4.580;2022-12-11T10:51:20;38.47;;;16.37;;
75261;SDS011;63859;51.064;4.580;2022-12-11T10:53:52;37.07;;;16.13;;
75261;SDS011;63859;51.064;4.580;2022-12-11T10:56:29;38.77;;;16.23;;
75261;SDS011;63859;51.064;4.580;2022-12-11T10:58:57;39.60;;;17.20;;
75261;SDS011;63859;51.064;4.580;2022-12-11T11:01:26;38.93;;;16.50;;
75261;SDS011;63859;51.064;4.580;2022-12-11T11:06:22;38.00;;;16.47;;
75261;SDS011;63859;51.064;4.580;2022-12-11T11:08:52;42.77;;;17.00;;
75261;SDS011;63859;51.064;4.580;2022-12-11T11:11:21;38.50;;;16.37;;
75261;SDS011;63859;51.064;4.580;2022-12-11T11:16:37;37.40;;;17.20;;
75261;SDS011;63859;51.064;4.580;2022-12-11T11:19:05;31.60;;;14.00;;
75261;SDS011;63859;51.064;4.580;2022-12-11T11:21:31;42.40;;;16.77;;
75261;SDS011;63859;51.064;4.580;2022-12-11T11:23:58;36.37;;;13.93;;
75261;SDS011;63859;51.064;4.580;2022-12-11T11:26:23;42.73;;;17.20;;
75261;SDS011;63859;51.064;4.580;2022-12-11T11:28:51;35.43;;;15.57;;
75261;SDS011;63859;51.064;4.580;2022-12-11T11:31:19;39.90;;;15.73;;
75261;SDS011;63859;51.064;4.580;2022-12-11T11:33:58;30.97;;;14.70;;
75261;SDS011;63859;51.064;4.580;2022-12-11T11:36:33;32.53;;;15.13;;
75261;SDS011;63859;51.064;4.580;2022-12-11T11:39:05;31.53;;;15.00;;
75261;SDS011;63859;51.064;4.580;2022-12-11T11:45:13;34.43;;;15.73;;
75261;SDS011;63859;51.064;4.580;2022-12-11T11:47:51;30.50;;;14.27;;
75261;SDS011;63859;51.064;4.580;2022-12-11T11:50:34;34.80;;;15.13;;
75261;SDS011;63859;51.064;4.580;2022-12-11T11:53:16;34.43;;;15.30;;
75261;SDS011;63859;51.064;4.580;2022-12-11T12:01:30;29.03;;;14.13;;
75261;SDS011;63859;51.064;4.580;2022-12-11T12:03:56;32.87;;;14.33;;
75261;SDS011;63859;51.064;4.580;2022-12-11T12:09:02;33.63;;;14.80;;
75261;SDS011;63859;51.064;4.580;2022-12-11T12:11:39;35.33;;;14.07;;
75261;SDS011;63859;51.064;4.580;2022-12-11T12:14:30;33.73;;;13.40;;
75261;SDS011;63859;51.064;4.580;2022-12-11T12:17:23;31.67;;;14.77;;
75261;SDS011;63859;51.064;4.580;2022-12-11T12:25:18;40.37;;;16.50;;
75261;SDS011;63859;51.064;4.580;2022-12-11T12:30:42;37.43;;;14.43;;
75261;SDS011;63859;51.064;4.580;2022-12-11T12:38:51;39.43;;;17.03;;
75261;SDS011;63859;51.064;4.580;2022-12-11T12:41:23;37.77;;;15.33;;
75261;SDS011;63859;51.064;4.580;2022-12-11T12:44:13;33.50;;;15.20;;
75261;SDS011;63859;51.064;4.580;2022-12-11T12:47:01;33.00;;;15.17;;
75261;SDS011;63859;51.064;4.580;2022-12-11T12:49:47;37.93;;;15.67;;
75261;SDS011;63859;51.064;4.580;2022-12-11T12:52:23;34.70;;;14.13;;
75261;SDS011;63859;51.064;4.580;2022-12-11T12:54:55;32.47;;;15.27;;
75261;SDS011;63859;51.064;4.580;2022-12-11T12:57:45;33.10;;;14.57;;
75261;SDS011;63859;51.064;4.580;2022-12-11T13:02:54;40.07;;;15.50;;
75261;SDS011;63859;51.064;4.580;2022-12-11T13:05:31;39.33;;;15.53;;
75261;SDS011;63859;51.064;4.580;2022-12-11T13:07:59;33.90;;;15.63;;
75261;SDS011;63859;51.064;4.580;2022-12-11T13:10:34;41.43;;;15.77;;
75261;SDS011;63859;51.064;4.580;2022-12-11T13:13:03;40.50;;;15.63;;
75261;SDS011;63859;51.064;4.580;2022-12-11T13:17:55;31.47;;;15.60;;
75261;SDS011;63859;51.064;4.580;2022-12-11T13:20:23;32.63;;;14.93;;
75261;SDS011;63859;51.064;4.580;2022-12-11T13:25:47;39.23;;;14.60;;
75261;SDS011;63859;51.064;4.580;2022-12-11T13:28:23;35.67;;;14.77;;
75261;SDS011;63859;51.064;4.580;2022-12-11T13:30:58;32.23;;;13.80;;
75261;SDS011;63859;51.064;4.580;2022-12-11T13:33:30;34.10;;;14.90;;
75261;SDS011;63859;51.064;4.580;2022-12-11T13:36:05;37.77;;;14.83;;
75261;SDS011;63859;51.064;4.580;2022-12-11T13:38:37;36.93;;;15.03;;
75261;SDS011;63859;51.064;4.580;2022-12-11T13:41:33;39.37;;;15.57;;
75261;SDS011;63859;51.064;4.580;2022-12-11T13:44:00;34.13;;;14.60;;
75261;SDS011;63859;51.064;4.580;2022-12-11T13:46:28;34.50;;;14.23;;
75261;SDS011;63859;51.064;4.580;2022-12-11T13:48:58;29.97;;;13.67;;
75261;SDS011;63859;51.064;4.580;2022-12-11T13:51:27;33.03;;;14.27;;
75261;SDS011;63859;51.064;4.580;2022-12-11T13:54:05;34.47;;;13.90;;
75261;SDS011;63859;51.064;4.580;2022-12-11T13:56:38;36.00;;;15.00;;
75261;SDS011;63859;51.064;4.580;2022-12-11T13:59:04;33.77;;;15.17;;
75261;SDS011;63859;51.064;4.580;2022-12-11T14:01:30;39.80;;;15.93;;
75261;SDS011;63859;51.064;4.580;2022-12-11T14:03:59;47.53;;;17.07;;
75261;SDS011;63859;51.064;4.580;2022-12-11T14:06:27;47.13;;;15.17;;
75261;SDS011;63859;51.064;4.580;2022-12-11T14:08:56;39.03;;;15.00;;
75261;SDS011;63859;51.064;4.580;2022-12-11T14:11:30;33.33;;;14.33;;
75261;SDS011;63859;51.064;4.580;2022-12-11T14:14:00;37.20;;;15.30;;
75261;SDS011;63859;51.064;4.580;2022-12-11T14:16:28;41.13;;;15.83;;
75261;SDS011;63859;51.064;4.580;2022-12-11T14:18:56;37.40;;;15.27;;
75261;SDS011;63859;51.064;4.580;2022-12-11T14:21:29;35.10;;;15.17;;
75261;SDS011;63859;51.064;4.580;2022-12-11T14:23:55;37.40;;;15.33;;
75261;SDS011;63859;51.064;4.580;2022-12-11T14:26:27;35.03;;;15.17;;
75261;SDS011;63859;51.064;4.580;2022-12-11T14:28:54;33.50;;;14.87;;
75261;SDS011;63859;51.064;4.580;2022-12-11T14:31:26;31.70;;;15.33;;
75261;SDS011;63859;51.064;4.580;2022-12-11T14:34:10;31.97;;;14.53;;
75261;SDS011;63859;51.064;4.580;2022-12-11T14:36:40;38.20;;;14.90;;
75261;SDS011;63859;51.064;4.580;2022-12-11T14:39:10;37.50;;;13.97;;
75261;SDS011;63859;51.064;4.580;2022-12-11T14:44:12;33.33;;;13.67;;
75261;SDS011;63859;51.064;4.580;2022-12-11T14:47:02;36.80;;;15.93;;
75261;SDS011;63859;51.064;4.580;2022-12-11T14:49:31;36.37;;;15.73;;
75261;SDS011;63859;51.064;4.580;2022-12-11T14:52:01;34.57;;;14.70;;
75261;SDS011;63859;51.064;4.580;2022-12-11T14:57:07;37.30;;;15.17;;
75261;SDS011;63859;51.064;4.580;2022-12-11T14:59:43;33.97;;;15.20;;
75261;SDS011;63859;51.064;4.580;2022-12-11T15:04:45;38.73;;;16.57;;
75261;SDS011;63859;51.064;4.580;2022-12-11T15:07:26;35.47;;;15.70;;
75261;SDS011;63859;51.064;4.580;2022-12-11T15:09:52;39.50;;;16.73;;
75261;SDS011;63859;51.064;4.580;2022-12-11T15:12:18;39.23;;;15.37;;
75261;SDS011;63859;51.064;4.580;2022-12-11T15:17:15;45.10;;;17.77;;
75261;SDS011;63859;51.064;4.580;2022-12-11T15:19:41;39.77;;;17.27;;
75261;SDS011;63859;51.064;4.580;2022-12-11T15:22:20;44.40;;;17.90;;
75261;SDS011;63859;51.064;4.580;2022-12-11T15:24:50;46.23;;;18.17;;
75261;SDS011;63859;51.064;4.580;2022-12-11T15:27:36;43.03;;;17.83;;
75261;SDS011;63859;51.064;4.580;2022-12-11T15:30:36;47.60;;;17.87;;
75261;SDS011;63859;51.064;4.580;2022-12-11T15:35:35;43.93;;;17.70;;
75261;SDS011;63859;51.064;4.580;2022-12-11T15:38:02;44.23;;;18.57;;
75261;SDS011;63859;51.064;4.580;2022-12-11T15:40:27;38.20;;;17.17;;
75261;SDS011;63859;51.064;4.580;2022-12-11T15:42:54;46.37;;;17.57;;
75261;SDS011;63859;51.064;4.580;2022-12-11T15:45:21;41.47;;;18.67;;
75261;SDS011;63859;51.064;4.580;2022-12-11T15:47:49;43.67;;;18.70;;
75261;SDS011;63859;51.064;4.580;2022-12-11T15:52:43;47.57;;;18.47;;
75261;SDS011;63859;51.064;4.580;2022-12-11T15:55:10;45.40;;;18.80;;
75261;SDS011;63859;51.064;4.580;2022-12-11T15:57:36;48.47;;;19.27;;
75261;SDS011;63859;51.064;4.580;2022-12-11T16:00:04;42.20;;;18.10;;
75261;SDS011;63859;51.064;4.580;2022-12-11T16:02:32;49.70;;;19.30;;
75261;SDS011;63859;51.064;4.580;2022-12-11T16:04:58;47.27;;;19.67;;
75261;SDS011;63859;51.064;4.580;2022-12-11T16:07:24;46.37;;;20.20;;
75261;SDS011;63859;51.064;4.580;2022-12-11T16:09:50;45.03;;;18.33;;
75261;SDS011;63859;51.064;4.580;2022-12-11T16:12:16;46.33;;;19.07;;
75261;SDS011;63859;51.064;4.580;2022-12-11T16:14:42;50.93;;;18.57;;
75261;SDS011;63859;51.064;4.580;2022-12-11T16:17:10;49.73;;;18.67;;
75261;SDS011;63859;51.064;4.580;2022-12-11T16:19:37;45.87;;;17.07;;
75261;SDS011;63859;51.064;4.580;2022-12-11T16:22:05;47.80;;;18.73;;
75261;SDS011;63859;51.064;4.580;2022-12-11T16:24:33;44.90;;;18.10;;
75261;SDS011;63859;51.064;4.580;2022-12-11T16:26:59;45.20;;;18.27;;
75261;SDS011;63859;51.064;4.580;2022-12-11T16:29:24;48.90;;;19.03;;